地図

経路データ

SID SEASON NUMBER BASIN SUBBASIN NAME ISO_TIME NATURE LAT LON WMO_WIND WMO_PRES WMO_AGENCY TRACK_TYPE DIST2LAND LANDFALL IFLAG USA_AGENCY USA_ATCF_ID USA_LAT USA_LON USA_RECORD USA_STATUS USA_WIND USA_PRES USA_SSHS USA_R34_NE USA_R34_SE USA_R34_SW USA_R34_NW USA_R50_NE USA_R50_SE USA_R50_SW USA_R50_NW USA_R64_NE USA_R64_SE USA_R64_SW USA_R64_NW USA_POCI USA_ROCI USA_RMW USA_EYE TOKYO_LAT TOKYO_LON TOKYO_GRADE TOKYO_WIND TOKYO_PRES TOKYO_R50_DIR TOKYO_R50_LONG TOKYO_R50_SHORT TOKYO_R30_DIR TOKYO_R30_LONG TOKYO_R30_SHORT TOKYO_LAND CMA_LAT CMA_LON CMA_CAT CMA_WIND CMA_PRES HKO_LAT HKO_LON HKO_CAT HKO_WIND HKO_PRES NEWDELHI_LAT NEWDELHI_LON NEWDELHI_GRADE NEWDELHI_WIND NEWDELHI_PRES NEWDELHI_CI NEWDELHI_DP NEWDELHI_POCI REUNION_LAT REUNION_LON REUNION_TYPE REUNION_WIND REUNION_PRES REUNION_TNUM REUNION_CI REUNION_RMW REUNION_R34_NE REUNION_R34_SE REUNION_R34_SW REUNION_R34_NW REUNION_R50_NE REUNION_R50_SE REUNION_R50_SW REUNION_R50_NW REUNION_R64_NE REUNION_R64_SE REUNION_R64_SW REUNION_R64_NW BOM_LAT BOM_LON BOM_TYPE BOM_WIND BOM_PRES BOM_TNUM BOM_CI BOM_RMW BOM_R34_NE BOM_R34_SE BOM_R34_SW BOM_R34_NW BOM_R50_NE BOM_R50_SE BOM_R50_SW BOM_R50_NW BOM_R64_NE BOM_R64_SE BOM_R64_SW BOM_R64_NW BOM_ROCI BOM_POCI BOM_EYE BOM_POS_METHOD BOM_PRES_METHOD NADI_LAT NADI_LON NADI_CAT NADI_WIND NADI_PRES WELLINGTON_LAT WELLINGTON_LON WELLINGTON_WIND WELLINGTON_PRES DS824_LAT DS824_LON DS824_STAGE DS824_WIND DS824_PRES TD9636_LAT TD9636_LON TD9636_STAGE TD9636_WIND TD9636_PRES TD9635_LAT TD9635_LON TD9635_WIND TD9635_PRES TD9635_ROCI NEUMANN_LAT NEUMANN_LON NEUMANN_CLASS NEUMANN_WIND NEUMANN_PRES MLC_LAT MLC_LON MLC_CLASS MLC_WIND MLC_PRES USA_GUST BOM_GUST BOM_GUST_PER REUNION_GUST REUNION_GUST_PER USA_SEAHGT USA_SEARAD_NE USA_SEARAD_SE USA_SEARAD_SW USA_SEARAD_NW STORM_SPEED STORM_DIR
1889153N14070 1889 2 NI AS NOT_NAMED 1889-06-02 00:00:00 TS 13.8000 70.4000 main 404 400 _________O____ -1 13.8000 70.4000 TC 64 2 16
1889153N14070 1889 2 NI AS NOT_NAMED 1889-06-02 03:00:00 TS 13.8850 70.4000 main 400 396 _________PO___ -1 13.9275 70.4000 TC 64 13.8000 70.4000 4 3 356
1889153N14070 1889 2 NI AS NOT_NAMED 1889-06-02 06:00:00 TS 14.0588 70.3994 main 392 383 _________OP___ -1 14.1000 70.4000 TC 64 13.9969 70.3985 4 4 0
1889153N14070 1889 2 NI AS NOT_NAMED 1889-06-02 09:00:00 TS 14.2793 70.3989 main 383 375 _________PP___ -1 14.3425 70.4000 TC 64 14.1950 70.3975 4 4 0
1889153N14070 1889 2 NI AS NOT_NAMED 1889-06-02 12:00:00 TS 14.4978 70.3989 main 375 367 _________OP___ -1 14.6000 70.4000 TC 64 14.3956 70.3978 4 4 0
1889153N14070 1889 2 NI AS NOT_NAMED 1889-06-02 15:00:00 TS 14.7037 70.4000 main 367 358 _________PO___ -1 14.8075 70.4000 TC 64 14.6000 70.4000 4 4 0
1889153N14070 1889 2 NI AS NOT_NAMED 1889-06-02 18:00:00 TS 14.9041 70.4020 main 358 347 _________OP___ -1 15.0000 70.4000 TC 64 14.8081 70.4040 4 4 0
1889153N14070 1889 2 NI AS NOT_NAMED 1889-06-02 21:00:00 TS 15.1112 70.4037 main 347 338 _________PP___ -1 15.2075 70.4000 TC 64 15.0150 70.4075 4 4 2
1889153N14070 1889 2 NI AS NOT_NAMED 1889-06-03 00:00:00 TS 15.3072 70.4036 main 338 329 _________OP___ -1 15.4000 70.4000 TC 64 15.2144 70.4072 4 4 0
1889153N14070 1889 2 NI AS NOT_NAMED 1889-06-03 03:00:00 TS 15.4787 70.4037 main 329 325 _________PO___ -1 15.5575 70.4075 TC 64 15.4000 70.4000 4 3 356
1889153N14070 1889 2 NI AS NOT_NAMED 1889-06-03 06:00:00 TS 15.6302 70.3911 main 325 319 _________OP___ -1 15.7000 70.4000 TC 64 15.5603 70.3822 4 3 353
1889153N14070 1889 2 NI AS NOT_NAMED 1889-06-03 09:00:00 TS 15.7750 70.3538 main 319 319 _________PP___ -1 15.8425 70.3500 TC 64 15.7075 70.3575 4 3 346
1889153N14070 1889 2 NI AS NOT_NAMED 1889-06-03 12:00:00 TS 15.9255 70.3145 main 327 323 _________OP___ -1 16.0000 70.3000 TC 64 15.8509 70.3291 4 3 351
1889153N14070 1889 2 NI AS NOT_NAMED 1889-06-03 15:00:00 TS 16.1000 70.3000 main 323 320 _________PO___ -1 16.2000 70.3000 TC 64 16.0000 70.3000 4 4 358
1889153N14070 1889 2 NI AS NOT_NAMED 1889-06-03 18:00:00 TS 16.2900 70.2875 main 320 319 _________OP___ -1 16.4000 70.3000 TC 64 16.1800 70.2750 4 4 354
1889153N14070 1889 2 NI AS NOT_NAMED 1889-06-03 21:00:00 TS 16.4650 70.2500 main 319 319 _________PP___ -1 16.5650 70.2500 TC 64 16.3650 70.2500 4 3 348
1889153N14070 1889 2 NI AS NOT_NAMED 1889-06-04 00:00:00 TS 16.6213 70.2125 main 327 324 _________OP___ -1 16.7000 70.2000 TC 64 16.5425 70.2250 4 3 353
1889153N14070 1889 2 NI AS NOT_NAMED 1889-06-04 03:00:00 TS 16.7537 70.2000 main 320 317 _________PO___ -1 16.8075 70.2000 TC 64 16.7000 70.2000 4 2 0
1889153N14070 1889 2 NI AS NOT_NAMED 1889-06-04 06:00:00 TS 16.8587 70.1875 main 317 317 _________OP___ -1 16.9000 70.2000 TC 64 16.8175 70.1750 4 2 347
1889153N14070 1889 2 NI AS NOT_NAMED 1889-06-04 09:00:00 TS 16.9538 70.1500 main 315 325 _________PP___ -1 16.9925 70.1500 TC 64 16.9150 70.1500 4 2 340
1889153N14070 1889 2 NI AS NOT_NAMED 1889-06-04 12:00:00 TS 17.0525 70.1125 main 321 317 _________OP___ -1 17.1000 70.1000 TC 64 17.0050 70.1250 4 2 351
1889153N14070 1889 2 NI AS NOT_NAMED 1889-06-04 15:00:00 TS 17.1750 70.1000 main 317 313 _________PO___ -1 17.2500 70.1000 TC 64 17.1000 70.1000 4 3 355
1889153N14070 1889 2 NI AS NOT_NAMED 1889-06-04 18:00:00 TS 17.3048 70.0895 main 313 309 _________OP___ -1 17.4000 70.1000 TC 64 17.2097 70.0790 4 2 352
1889153N14070 1889 2 NI AS NOT_NAMED 1889-06-04 21:00:00 TS 17.4100 70.0575 main 309 309 _________PP___ -1 17.4925 70.0575 TC 64 17.3275 70.0574 4 2 343
1889153N14070 1889 2 NI AS NOT_NAMED 1889-06-05 00:00:00 TS 17.5283 70.0161 main 316 311 _________OP___ -1 17.6000 70.0000 TC 64 17.4566 70.0321 4 3 345
1889153N14070 1889 2 NI AS NOT_NAMED 1889-06-05 03:00:00 TS 17.6963 69.9750 main 311 309 _________PO___ -1 17.7925 69.9500 TC 64 17.6000 70.0000 4 4 348
1889153N14070 1889 2 NI AS NOT_NAMED 1889-06-05 06:00:00 TS 17.8823 69.9286 main 318 316 _________OP___ -1 18.0000 69.9000 TC 64 17.7647 69.9572 4 4 346
1889153N14070 1889 2 NI AS NOT_NAMED 1889-06-05 09:00:00 TS 18.0500 69.8788 main 305 298 _________PP___ -1 18.1575 69.8500 TC 64 17.9425 69.9075 4 3 344
1889153N14070 1889 2 NI AS NOT_NAMED 1889-06-05 12:00:00 TS 18.2120 69.8270 main 298 277 _________OP___ -1 18.3000 69.8000 TC 64 18.1241 69.8541 4 3 344
1889153N14070 1889 2 NI AS NOT_NAMED 1889-06-05 15:00:00 TS 18.3750 69.7750 main 277 267 _________PO___ -1 18.4500 69.7500 TC 64 18.3000 69.8000 4 3 342
1889153N14070 1889 2 NI AS NOT_NAMED 1889-06-05 18:00:00 TS 18.5225 69.7290 main 271 251 _________OP___ -1 18.6000 69.7000 TC 64 18.4450 69.7580 4 3 343
1889153N14070 1889 2 NI AS NOT_NAMED 1889-06-05 21:00:00 TS 18.6637 69.6861 main 251 241 _________PP___ -1 18.7425 69.6575 TC 64 18.5850 69.7148 4 3 343
1889153N14070 1889 2 NI AS NOT_NAMED 1889-06-06 00:00:00 TS 18.8162 69.6321 main 246 227 _________OP___ -1 18.9000 69.6000 TC 64 18.7325 69.6642 4 4 339
1889153N14070 1889 2 NI AS NOT_NAMED 1889-06-06 03:00:00 TS 18.9925 69.5537 main 227 215 _________PO___ -1 19.0850 69.5075 TC 64 18.9000 69.6000 4 4 337
1889153N14070 1889 2 NI AS NOT_NAMED 1889-06-06 06:00:00 TS 19.2017 69.4572 main 215 203 _________OP___ -1 19.3000 69.4000 TC 64 19.1035 69.5144 4 5 337
1889153N14070 1889 2 NI AS NOT_NAMED 1889-06-06 09:00:00 TS 19.4350 69.3575 main 203 182 _________PP___ -1 19.5425 69.3000 TC 64 19.3275 69.4151 4 5 338
1889153N14070 1889 2 NI AS NOT_NAMED 1889-06-06 12:00:00 TS 19.6814 69.2541 main 182 169 _________OP___ -1 19.8000 69.2000 TC 64 19.5628 69.3081 4 5 338
1889153N14070 1889 2 NI AS NOT_NAMED 1889-06-06 15:00:00 TS 19.9287 69.1500 main 169 152 _________PO___ -1 20.0575 69.1000 TC 64 19.8000 69.2000 4 5 338
1889153N14070 1889 2 NI AS NOT_NAMED 1889-06-06 18:00:00 TS 20.1625 69.0520 main 152 144 _________OP___ -1 20.3000 69.0000 TC 64 20.0250 69.1039 4 5 338
1889153N14070 1889 2 NI AS NOT_NAMED 1889-06-06 21:00:00 TS 20.3750 68.9536 main 144 137 _________PP___ -1 20.5000 68.8999 TC 64 20.2499 69.0073 4 5 337
1889153N14070 1889 2 NI AS NOT_NAMED 1889-06-07 00:00:00 TS 20.5875 68.8535 main 137 129 _________OP___ -1 20.7000 68.8000 TC 64 20.4750 68.9070 4 5 338
1889153N14070 1889 2 NI AS NOT_NAMED 1889-06-07 03:00:00 TS 20.8250 68.7537 main 129 121 _________PO___ -1 20.9500 68.7075 TC 64 20.7000 68.8000 4 5 337
1889153N14070 1889 2 NI AS NOT_NAMED 1889-06-07 06:00:00 TS 21.0625 68.6411 main 121 113 _________OP___ -1 21.2000 68.6000 TC 64 20.9250 68.6821 4 5 333
1889153N14070 1889 2 NI AS NOT_NAMED 1889-06-07 09:00:00 TS 21.2750 68.5037 main 113 103 _________PP___ -1 21.4000 68.4500 TC 64 21.1500 68.5574 4 5 329
1889153N14070 1889 2 NI AS NOT_NAMED 1889-06-07 12:00:00 TS 21.4875 68.3645 main 103 91 _________OP___ -1 21.6000 68.3000 TC 64 21.3750 68.4290 4 5 332
1889153N14070 1889 2 NI AS NOT_NAMED 1889-06-07 15:00:00 TS 21.7250 68.2500 main 98 84 _________PO___ -1 21.8500 68.1999 TC 64 21.6000 68.3000 4 5 339
1889153N14070 1889 2 NI AS NOT_NAMED 1889-06-07 18:00:00 TS 21.9541 68.1674 main 79 79 _________OP___ -1 22.1000 68.1000 TC 64 21.8081 68.2348 4 5 340
1889153N14070 1889 2 NI AS NOT_NAMED 1889-06-07 21:00:00 TS 22.1481 68.0813 main 85 83 _________PP___ -1 22.2773 68.0020 TC 64 22.0189 68.1607 4 5 331
1889153N14070 1889 2 NI AS NOT_NAMED 1889-06-08 00:00:00 TS 22.3726 67.9156 main 103 103 _________OP___ -1 22.5000 67.8000 TC 64 22.2453 68.0313 4 7 321
1889153N14070 1889 2 NI AS NOT_NAMED 1889-06-08 03:00:00 TS 22.6963 67.6052 main 116 94 _________PO___ -1 22.8925 67.4104 TC 64 22.5000 67.8000 4 10 315
1889153N14070 1889 2 NI AS NOT_NAMED 1889-06-08 06:00:00 TS 23.0665 67.1648 main 88 88 _________OP___ -1 23.3000 66.9000 TC 64 22.8330 67.4296 4 11 309
1889153N14070 1889 2 NI AS NOT_NAMED 1889-06-08 09:00:00 TS 23.3875 66.6622 main 97 97 _________PP___ -1 23.5874 66.3723 TC 64 23.1876 66.9521 4 11 301
1889153N14070 1889 2 NI AS NOT_NAMED 1889-06-08 12:00:00 TS 23.6617 66.0992 main 136 136 _________OP___ -1 23.8000 65.8000 TC 64 23.5234 66.3984 4 12 295
1889153N14070 1889 2 NI AS NOT_NAMED 1889-06-08 15:00:00 TS 23.8899 65.5074 main 157 135 _________PO___ -1 23.9798 65.2149 TC 64 23.8000 65.8000 4 12 289
1889153N14070 1889 2 NI AS NOT_NAMED 1889-06-08 18:00:00 TS 24.0431 64.8768 main 135 122 _________OP___ -1 24.1000 64.6000 TC 64 23.9862 65.1535 4 12 282
1889153N14070 1889 2 NI AS NOT_NAMED 1889-06-08 21:00:00 TS 24.1436 64.1897 main 124 112 _________PP___ -1 24.1804 63.8975 TC 64 24.1069 64.4819 4 12 277
1889153N14070 1889 2 NI AS NOT_NAMED 1889-06-09 00:00:00 TS 24.1869 63.5722 main 112 111 _________OP___ -1 24.2000 63.3000 TC 64 24.1738 63.8443 4 10 272
1889153N14070 1889 2 NI AS NOT_NAMED 1889-06-09 03:00:00 TS 24.1785 63.1487 main 112 111 _________PO___ -1 24.1570 62.9974 TC 64 24.2000 63.3000 4 6 267
1889153N14070 1889 2 NI AS NOT_NAMED 1889-06-09 06:00:00 TS 24.1547 62.8619 main 112 108 _________OP___ -1 24.1000 62.8000 TC 64 24.2094 62.9238 4 5 266
1889153N14070 1889 2 NI AS NOT_NAMED 1889-06-09 09:00:00 TS 24.1391 62.5759 main 113 111 _________PP___ -1 24.0925 62.5075 TC 64 24.1857 62.6443 4 5 266
1889153N14070 1889 2 NI AS NOT_NAMED 1889-06-09 12:00:00 TS 24.1221 62.3089 main 111 105 _________OP___ -1 24.1000 62.2000 TC 64 24.1442 62.4178 4 5 266
1889153N14070 1889 2 NI AS NOT_NAMED 1889-06-09 15:00:00 TS 24.1037 62.0463 main 102 100 _________PO___ -1 24.1075 61.8925 TC 56 24.1000 62.2000 4 5 265
1889153N14070 1889 2 NI AS NOT_NAMED 1889-06-09 18:00:00 TS 24.0800 61.8033 main 100 100 _________OP___ -1 24.1000 61.6000 TC 49 24.0649 61.9558 4 5 263
1889153N14070 1889 2 NI AS NOT_NAMED 1889-06-09 21:00:00 TS 24.0472 61.5471 main 115 115 _________PP___ -1 24.0600 61.3399 TC 41 24.0387 61.6852 4 5 262
1889153N14070 1889 2 NI AS NOT_NAMED 1889-06-10 00:00:00 TS 24.0121 61.2980 main 122 122 _________OP___ -1 24.0000 61.1000 TC 34 24.0181 61.3970 4 4 263
1889153N14070 1889 2 NI AS NOT_NAMED 1889-06-10 03:00:00 NR 24.0000 61.1000 main 126 __________O___ -1 TC 24.0000 61.1000 2 4 266

IBTrACS Databaseについて

本データベースは、米国NOAAが公開する1842年以降の世界の熱帯低気圧のベストトラックデータアーカイブInternational Best Track Archive for Climate Stewardship (IBTrACS)を、ウェブで閲覧しやすい形式に変換したものです。

最終更新日:2021-12-01